Weather reports worldwide

Advertisment
Casale Monferrato, Italy (16068): temperature & dewpoint: 15.05.2019 16:00:00 - 21.05.2019 16:00:00 (CEST)Casale Monferrato, Italy (16068): wind speed: 15.05.2019 16:00:00 - 21.05.2019 16:00:00 (CEST)Casale Monferrato, Italy (16068): wind direction: 15.05.2019 16:00:00 - 21.05.2019 16:00:00 (CEST)Casale Monferrato, Italy (16068): reduced air pressure: 15.05.2019 16:00:00 - 21.05.2019 16:00:00 (CEST)Casale Monferrato, Italy (16068): precipitation: 15.05.2019 16:00:00 - 21.05.2019 16:00:00 (CEST)
Date & Time tt [°C] td [°C] ff [km/h] ff [kn] dd ppp [hPa] rr [mm]
21.05.2019 16:00:00 - - - - - - -
21.05.2019 15:00:00 22,4 17,2 18 10 S 1008,5 -
21.05.2019 14:00:00 22,8 17,6 13 7 S 1008,4 -
21.05.2019 13:00:00 21,8 16,5 4 2 WSW 1008,5 -
21.05.2019 12:00:00 19,8 15,2 8 4 SW 1008,7 -
21.05.2019 11:00:00 18,4 14,4 8 4 SW 1008,8 -
21.05.2019 10:00:00 17,2 14,0 9 5 SSW 1008,6 -
21.05.2019 09:00:00 16,5 14,8 2 1 NW 1008,5 -
21.05.2019 08:00:00 13,8 12,7 4 2 NE 1008,5 -
21.05.2019 07:00:00 11,2 9,9 0 0 N 1008,1 -
21.05.2019 06:00:00 10,9 9,6 2 1 WSW 1007,9 -
21.05.2019 05:00:00 12,1 10,7 4 2 SW 1007,8 -
21.05.2019 04:00:00 12,4 11,1 4 2 W 1007,5 -
21.05.2019 03:00:00 12,5 11,2 4 2 W 1007,6 -
21.05.2019 02:00:00 12,5 11,2 2 1 W 1007,6 -
21.05.2019 01:00:00 12,2 10,8 2 1 W 1007,8 -
21.05.2019 00:00:00 12,3 10,9 4 2 SSW 1007,6 -
20.05.2019 23:00:00 12,6 11,0 4 2 SSE 1007,5 -
20.05.2019 22:00:00 14,6 12,1 5 3 S 1006,8 -
20.05.2019 21:00:00 15,3 12,2 11 6 S 1006,2 -
20.05.2019 20:00:00 16,1 12,9 9 5 S 1006,0 -
20.05.2019 19:00:00 16,4 14,5 9 5 SSE 1006,0 -
20.05.2019 18:00:00 16,5 14,8 11 6 S 1005,7 -
20.05.2019 17:00:00 17,2 14,0 15 8 S 1005,6 -
20.05.2019 16:00:00 17,9 14,7 15 8 SE 1005,6 -
20.05.2019 15:00:00 17,2 14,4 11 6 SSE 1005,5 -
20.05.2019 14:00:00 17,8 14,8 8 4 S 1005,3 -
20.05.2019 13:00:00 17,1 14,7 9 5 SSE 1005,2 -
20.05.2019 12:00:00 16,7 13,7 9 5 S 1005,0 -
20.05.2019 11:00:00 16,3 13,9 11 6 S 1005,1 -
20.05.2019 10:00:00 15,5 14,0 4 2 SW 1005,0 -
20.05.2019 09:00:00 14,6 13,6 0 0 N 1005,0 -
20.05.2019 08:00:00 13,2 12,2 0 0 N 1004,9 -
20.05.2019 07:00:00 12,4 11,5 0 0 N 1004,7 -
20.05.2019 06:00:00 12,5 11,4 0 0 N 1004,5 -
20.05.2019 05:00:00 12,5 11,4 0 0 N 1004,7 -
20.05.2019 04:00:00 12,3 11,2 0 0 N 1004,6 -
20.05.2019 03:00:00 12,7 11,6 0 0 N 1004,7 -
20.05.2019 02:00:00 13,1 12,0 0 0 N 1005,2 -
20.05.2019 01:00:00 13,5 12,2 0 0 N 1005,5 -
20.05.2019 00:00:00 13,6 12,3 2 1 NNW 1005,9 -
19.05.2019 23:00:00 13,9 12,6 0 0 N 1005,8 -
19.05.2019 22:00:00 14,0 12,7 0 0 N 1005,5 -
19.05.2019 21:00:00 14,3 13,0 4 2 E 1005,2 -
19.05.2019 20:00:00 14,6 13,1 4 2 E 1005,1 -
19.05.2019 19:00:00 14,6 13,1 5 3 E 1005,0 -
19.05.2019 18:00:00 14,7 13,4 8 4 ESE 1005,0 -
19.05.2019 17:00:00 15,0 13,3 8 4 ENE 1004,9 -
19.05.2019 16:00:00 14,8 13,1 5 3 NE 1005,0 -
19.05.2019 15:00:00 14,1 12,5 9 5 NE 1005,1 -
19.05.2019 14:00:00 14,1 12,6 8 4 NNE 1005,0 -
19.05.2019 13:00:00 13,7 12,2 5 3 NNW 1005,1 -
19.05.2019 12:00:00 13,2 11,9 9 5 N 1005,2 -
19.05.2019 11:00:00 12,8 11,5 8 4 NNW 1005,3 -
19.05.2019 10:00:00 12,4 11,3 5 3 N 1005,2 -
19.05.2019 09:00:00 12,1 11,0 4 2 NNW 1005,1 -
19.05.2019 08:00:00 11,6 10,5 4 2 NW 1005,0 -
19.05.2019 07:00:00 11,5 10,4 0 0 N 1005,0 -
19.05.2019 06:00:00 11,6 10,5 0 0 N 1005,2 -
19.05.2019 05:00:00 11,6 10,5 0 0 N 1005,5 -
19.05.2019 04:00:00 11,7 10,6 0 0 N 1006,0 -
19.05.2019 03:00:00 11,7 10,6 2 1 ENE 1006,5 -
19.05.2019 02:00:00 11,7 10,6 5 3 W 1006,4 -
19.05.2019 01:00:00 11,6 10,5 8 4 WSW 1007,0 -
19.05.2019 00:00:00 11,8 10,5 4 2 WSW 1007,4 -
18.05.2019 23:00:00 11,8 10,5 4 2 WSW 1007,5 -
18.05.2019 22:00:00 12,0 10,7 2 1 W 1007,7 -
18.05.2019 21:00:00 11,9 10,6 9 5 NW 1007,7 -
18.05.2019 20:00:00 12,4 11,1 8 4 NW 1007,5 -
18.05.2019 19:00:00 12,5 11,4 8 4 NW 1007,3 -
18.05.2019 18:00:00 12,6 11,3 9 5 NW 1007,2 -
18.05.2019 17:00:00 12,7 11,4 9 5 NW 1007,1 -
18.05.2019 16:00:00 12,9 11,5 9 5 NNW 1007,2 -
18.05.2019 15:00:00 12,6 11,3 13 7 NNW 1007,4 -
18.05.2019 14:00:00 12,4 11,1 9 5 N 1007,6 -
18.05.2019 13:00:00 12,0 10,9 11 6 N 1007,8 -
18.05.2019 12:00:00 11,8 10,7 11 6 N 1007,7 -
18.05.2019 11:00:00 11,9 10,8 15 8 N 1007,8 -
18.05.2019 10:00:00 11,5 10,4 13 7 N 1007,8 -
18.05.2019 09:00:00 11,4 10,3 11 6 N 1007,6 -
18.05.2019 08:00:00 11,2 10,1 8 4 N 1007,5 -
18.05.2019 07:00:00 11,2 10,1 8 4 NNE 1007,4 -
18.05.2019 06:00:00 11,3 10,2 9 5 N 1007,3 -
18.05.2019 05:00:00 11,5 10,4 9 5 N 1007,7 -
18.05.2019 04:00:00 11,6 10,5 11 6 N 1007,9 -
18.05.2019 03:00:00 11,6 10,5 8 4 NNE 1008,7 -
18.05.2019 02:00:00 11,4 10,3 13 7 N 1008,5 -
18.05.2019 01:00:00 11,6 10,5 9 5 NNW 1009,0 -
18.05.2019 00:00:00 11,9 10,8 8 4 N 1009,3 -
17.05.2019 23:00:00 11,7 10,6 8 4 NW 1009,3 -
17.05.2019 22:00:00 11,9 10,8 15 8 N 1008,9 -
17.05.2019 21:00:00 12,2 10,9 4 2 NNW 1009,3 -
17.05.2019 20:00:00 12,7 11,3 5 3 NW 1009,0 -
17.05.2019 19:00:00 13,8 12,2 4 2 NNW 1008,9 -
17.05.2019 18:00:00 14,6 12,4 11 6 NNW 1009,0 -
17.05.2019 17:00:00 15,6 11,3 9 5 NNW 1009,0 -
17.05.2019 16:00:00 16,1 10,1 11 6 WNW 1009,4 -
17.05.2019 15:00:00 17,0 9,6 5 3 ENE 1009,3 -
17.05.2019 14:00:00 16,8 9,4 9 5 NNE 1009,4 -
17.05.2019 13:00:00 16,2 9,6 9 5 ENE 1009,6 -
17.05.2019 12:00:00 15,7 10,2 11 6 ENE 1009,4 -
17.05.2019 11:00:00 15,3 11,8 11 6 NE 1009,2 -
17.05.2019 10:00:00 13,9 11,2 9 5 ENE 1009,6 -
17.05.2019 09:00:00 12,5 10,9 5 3 NNE 1009,8 -
17.05.2019 08:00:00 11,8 10,2 2 1 NNE 1009,7 -
17.05.2019 07:00:00 10,9 9,5 4 2 NE 1009,5 -
17.05.2019 06:00:00 10,5 8,9 4 2 W 1009,3 -
17.05.2019 05:00:00 10,3 8,7 0 0 N 1009,7 -
17.05.2019 04:00:00 10,4 8,8 0 0 N 1009,5 -
17.05.2019 03:00:00 10,7 9,1 4 2 WSW 1009,8 -
17.05.2019 02:00:00 10,3 8,2 0 0 N 1010,3 -
17.05.2019 01:00:00 11,7 8,9 0 0 N 1010,3 -
17.05.2019 00:00:00 12,7 8,5 0 0 N 1010,4 -
16.05.2019 23:00:00 14,6 9,4 0 0 N 1010,5 -
16.05.2019 22:00:00 15,1 9,6 2 1 S 1010,0 -
16.05.2019 21:00:00 16,4 9,0 9 5 E 1009,5 -
16.05.2019 20:00:00 18,7 8,9 8 4 E 1009,3 -
16.05.2019 19:00:00 19,9 9,1 2 1 SE 1009,0 -
16.05.2019 18:00:00 20,2 8,1 9 5 ESE 1009,4 -
16.05.2019 17:00:00 20,3 8,2 9 5 E 1009,4 -
16.05.2019 16:00:00 - - - - - - -
16.05.2019 15:00:00 18,8 8,1 8 4 NE 1010,7 -
16.05.2019 14:00:00 18,1 8,0 8 4 NE 1011,4 -
16.05.2019 13:00:00 17,6 7,8 9 5 S 1011,8 -
16.05.2019 12:00:00 16,9 8,0 5 3 NE 1012,6 -
16.05.2019 11:00:00 16,0 9,1 5 3 E 1013,0 -
16.05.2019 10:00:00 14,4 8,7 4 2 N 1013,3 -
16.05.2019 09:00:00 13,3 8,1 0 0 N 1013,6 -
16.05.2019 08:00:00 10,6 9,3 0 0 N 1013,8 0,0
16.05.2019 07:00:00 5,9 4,5 2 1 SW 1014,1 -
16.05.2019 06:00:00 5,8 4,3 0 0 N 1014,2 -
16.05.2019 05:00:00 5,9 4,4 2 1 W 1014,3 -
16.05.2019 04:00:00 6,4 4,9 0 0 N 1014,7 -
16.05.2019 03:00:00 6,8 5,3 5 3 WSW 1014,9 -
16.05.2019 02:00:00 7,2 5,3 4 2 W 1015,4 -
16.05.2019 01:00:00 7,8 5,1 4 2 WNW 1016,0 -
16.05.2019 00:00:00 9,7 5,8 4 2 N 1016,2 -
15.05.2019 23:00:00 10,7 6,2 5 3 N 1015,9 -
15.05.2019 22:00:00 10,6 5,7 5 3 NE 1015,5 -
15.05.2019 21:00:00 11,9 5,2 9 5 E 1014,9 -
15.05.2019 20:00:00 13,9 5,9 11 6 ESE 1014,3 -
15.05.2019 19:00:00 14,6 5,3 13 7 SE 1014,2 -
15.05.2019 18:00:00 15,4 4,9 13 7 SE 1014,2 -
15.05.2019 17:00:00 15,2 6,1 18 10 ESE 1014,4 -
15.05.2019 16:00:00 - - - - - - -

tt = temperature
td = dewpoint
ff = wind speed
dd = wind direction
ppp = reduced air pressure
rr = precipitation

Next stations